Accueil
METAR-TAF:

METAR-TAF

Aéroports :

Raleigh Exec Jetport at Sanford-Lee County

Sanford, Caroline du Nord, États-Unis

latitude: 35-34-57N, longitude: 079-06-05W, altitude: 75 m

Observation

Le bulletin a été fait il y a 6 minutes, à 16:15 UTC
Vent 4 kt de nord
Température 4°C
Humidité 65%
Pression 1029 hPa
Visibilité: 16.1 km
Nuages épars à une hauteur de 4500 ft
Ciel couvert à une hauteur de 7000 ft

METAR: KTTA 141615Z AUTO 36004KT 10SM SCT045 OVC070 04/M02 A3038 RMK AO2 T00411021

Heure: 11:21 (16:21 UTC)


TAF: absent

Observations et prévisions météorologiques de plus de 4000 aéroports (messages METAR et TAF).

Les stations disponibles sont représentées par des disques jaunes et rouges sur la carte.

Passer la souris dessus pour voir le nom de la station.

Cliquer dessus pour voir les observations et prévisions météorologiques.

Pour changer de carte: cliquez sur les boutons verts avec une croix noire pour zoomer, sur le bouton vert avec un tiret pour effectuer un zoom arrière, ou sur les flèches vertes pour les cartes adjacentes.


METAR-TAF: